Skip Navigation Links
NOAA logo - Click to go to the NOAA homepage
NOAA's National Weather Service
Alaska Aviation Weather Unit
  NWS logo - Click to go to the NWS homepage
Left Navbar Graphic     01 AKDT = 09 GMT

   
NOAA is celebrating 200 years of science, service, and stewardship. Visit the NOAA 200th celebration Web site to learn more.
USA.gov is the U.S. Government's official Web portal to all Federal, state and local government Web resources and services.
Facebook
NWS on Facebook

Important Change Regarding the AAWU Web Presence

 

Over the last several months, the AAWU has been working to navigate its webpages to a nationally supported server. Security, as well as other needs, have necessitated the change.  We have been given an extension for the site changeover while we diligently work at addressing feedback received. As of July 14, 2017, aawu.arh.noaa.gov will be discontinued. The new AAWU web address is weather.gov/aawu. It is now live and will run in-parallel with the old site until it is discontinued on July 14, 2017. Please continue to send any feedback or questions regarding the new webpages to nws.ar.aawu.webauthors@noaa.gov.  Thank you for your patience during this time of transition.
AAWU Home :: Display TAF Add Bookmark
SPECI PAMD 190311Z AUTO 11013G20KT 2 1/2SM RA BR BKN006 BKN014 OVC020
     11/11 A2974 RMK AO2 CIG 003V011 P0008=

SPECI PAMD 190315Z AUTO 11016G19KT 3SM -RA BR BKN006 OVC014 11/11 A2973
     RMK AO2 CIG 003V011 P0009=

SPECI PAMD 190326Z AUTO 10013G25KT 4SM -RA BR BKN004 BKN010 OVC023 11/11
     A2974 RMK AO2 CIG 003V007 P0010=

SPECI PAMD 190329Z AUTO 10015G25KT 2 1/2SM -RA BR BKN006 BKN010 OVC023
     11/11 A2973 RMK AO2 VIS 1 1/4V5 CIG 003V010 P0011=

SPECI PAMD 190347Z AUTO 11016G22KT 3SM -RA BR BKN006 OVC011 11/11 A2972
     RMK AO2 CIG 004V008 P0014=

PAMD 190351Z AUTO 11015G22KT 7SM -RA BKN006 OVC011 11/11 A2972 RMK
     AO2 CIG 004V009 SLP057 P0014 T01110106=

SPECI PAMD 190427Z AUTO 17005KT 10SM SCT009 SCT026 BKN060 12/11 A2972
     RMK AO2 RAE0355 P0000=

SPECI PAMD 190431Z AUTO 18005KT 9SM SCT009 BKN024 BKN060 12/11 A2972 RMK
     AO2 RAE0355 P0000=

SPECI PAMD 190448Z AUTO 18013KT 8SM -RA SCT011 BKN022 BKN050 12/11 A2972
     RMK AO2 RAE0355B46 P0000=

PAMD 190451Z AUTO 17011KT 7SM -RA BKN011 BKN020 OVC055 12/11 A2972
     RMK AO2 RAE0355B46 CIG 007V015 SLP054 P0001 T01170111=

PAMD 190455Z AUTO 18008KT 5SM -RA BR FEW008 BKN011 OVC050 12/11
     A2972 RMK AO2 P0000=

PAMD 190457Z AUTO 18007KT 6SM -RA BR FEW008 BKN019 OVC050 12/11
     A2972 RMK AO2 P0000=

SPECI PAMD 190514Z AUTO 17007KT 10SM -RA FEW007 BKN014 OVC050 12/11
 A2972 RMK AO2 P0001=

SPECI PAMD 190521Z AUTO 18009KT 10SM SCT012 BKN023 OVC050 12/11 A2972
     RMK AO2 RAE17 P0001=

SPECI PAMD 190606Z AUTO 19010KT 10SM SCT016 SCT029 BKN070 12/11 A2972
     RMK AO2=

SPECI PAMD 190610Z AUTO 19009KT 10SM SCT016 BKN029 BKN070 12/11 A2972
     RMK AO2 CIG 023V038=

SPECI PAMD 190620Z AUTO 20010KT 10SM SCT016 SCT027 13/11 A2971 RMK
     AO2=

SPECI PAMD 190737Z AUTO 21009KT 10SM -RA FEW013 SCT019 BKN100 12/11
     A2971 RMK AO2 RAB35 P0000=

PAMD 190851Z AUTO 22009KT 10SM FEW018 BKN095 12/10 A2971 RMK AO2
     RAB32E44 SLP052 P0000 60000 T01220100 55001=


NOAA's National Weather Service
Alaska Aviation Weather Unit
6930 Sand Lake Road
Anchorage, AK 99502-1845
Disclaimer
Credits
Glossary
Privacy Policy
About Us
Career Opportunities
Contact AAWU Internet Services Site last modified: April, 17th 2012